メインページ
METAR-TAF:

METAR-TAF

空港 :

マイアミ, フロリダ州, アメリカ合衆国

マイアミ国際空港

緯度: 25-47-26N, 経度: 080-18-59W, 海抜: 3m

現時点の気象観測

当レポートは17分前の21:53(UTC)に作成
の風 16kt、最大24ktの突風を伴う
気温 26°C
湿度 74%
気圧 1023 hPa
視程: 16.1km
高度2700ftの雲は散在している
高度5000ftの千切れ雲あり
高度6500ftの曇り

METAR: KMIA 192153Z 10016G24KT 10SM SCT027 BKN050 OVC065 26/21 A3022 RMK AO2 RAB18E34 SLP233 P0000 T02560211 $

時間: 17:10 (22:10 UTC)

予報

当レポートは4時間30分前の17:40(UTC)に作成
予報は19日の 18時(UTC)から 20日の 24時(UTC)まで有効
の風 16kt、最大26ktの突風を伴う
視程: 10km
高度2500ftの雲は散在している
高度5000ftの千切れ雲あり
近辺でにわか雨
19日の 18時(UTC)から 19日の 20時(UTC)まで一時的に
視程: 9.7km
高度2500ftの千切れ雲あり
弱いにわか雨
20日の 0000時(UTC)から
の風 13kt
視程: 10km
高度1500ftの雲はほとんどない
高度2500ftの雲は散在している
高度5000ftの千切れ雲あり
20日の 1500時(UTC)から
東/南東の風 16kt、最大26ktの突風を伴う
視程: 10km
高度2500ftの雲はほとんどない
高度5000ftの雲は散在している

TAF: KMIA 191740Z 1918/2024 10016G26KT P6SM VCSH SCT025 BKN050 TEMPO 1918/1920 6SM -SHRA BKN025 FM200000 09013KT P6SM FEW015 SCT025 BKN050 FM201500 12016G26KT P6SM FEW025 SCT050

4,000以上の空港の気象観測と天気予報(METAR報とTAF報)

利用可能な観測所は地図上に黄色い丸と赤い丸で示す。

丸の上にカーソルを重ねると観測所名を参照できる。

次にクリックすると気象観測と天気予報を参照できる。

マップの切り替え:黒色「×」印の緑ボタンをクリックして拡大、「-」印の緑ボタンをクリックして縮小、緑色の三角印をクリックして隣りの地図に切り替え


METAR-TAF: